createdAt,value
2022-08-09T00:12:55.869Z,17.17
2022-08-09T00:28:00.073Z,17.10
2022-08-09T00:44:16.958Z,16.94
2022-08-09T00:58:25.438Z,16.82
2022-08-09T01:13:59.823Z,16.73
2022-08-09T01:29:06.650Z,16.72
2022-08-09T01:44:11.691Z,16.70
2022-08-09T01:59:18.712Z,16.63
2022-08-09T02:14:25.563Z,16.59
2022-08-09T02:29:34.570Z,16.55
2022-08-09T02:44:40.712Z,16.56
2022-08-09T03:00:20.362Z,16.53
2022-08-09T03:15:10.029Z,16.39
2022-08-09T03:30:13.449Z,16.41
2022-08-09T03:45:16.231Z,16.44
2022-08-09T04:00:39.726Z,16.49
2022-08-09T04:16:20.589Z,16.62
2022-08-09T04:31:09.899Z,16.80
2022-08-09T04:46:19.359Z,16.99
2022-08-09T05:01:34.329Z,17.27
2022-08-09T05:16:58.411Z,17.48
2022-08-09T05:32:00.750Z,17.76
2022-08-09T05:47:04.984Z,17.85
2022-08-09T06:02:08.310Z,17.94
2022-08-09T06:17:12.357Z,18.07
2022-08-09T06:33:00.708Z,18.40
2022-08-09T06:47:39.752Z,18.88
2022-08-09T07:02:45.033Z,19.24
2022-08-09T07:17:52.677Z,19.68
2022-08-09T07:32:58.778Z,20.12
2022-08-09T07:48:04.572Z,20.44
2022-08-09T08:03:08.323Z,20.88
2022-08-09T08:18:11.791Z,21.38
2022-08-09T08:33:22.803Z,22.28
2022-08-09T08:48:28.986Z,22.59
2022-08-09T09:03:37.707Z,23.05
2022-08-09T09:18:43.355Z,23.11
2022-08-09T09:33:56.836Z,23.05
2022-08-09T09:49:03.596Z,23.14
2022-08-09T10:04:15.878Z,23.51
2022-08-09T10:19:18.852Z,23.22
2022-08-09T10:34:33.603Z,23.00
2022-08-09T10:49:54.346Z,23.69
2022-08-09T11:05:25.257Z,24.09
2022-08-09T11:20:49.811Z,24.48
2022-08-09T11:36:00.788Z,24.67
2022-08-09T11:51:38.102Z,25.16
2022-08-09T12:06:32.140Z,25.47
2022-08-09T12:21:48.810Z,24.78
2022-08-09T12:36:59.057Z,24.45
2022-08-09T12:52:18.289Z,24.38
2022-08-09T13:07:49.979Z,24.22
2022-08-09T13:23:05.204Z,23.97
2022-08-09T13:38:17.804Z,23.88
2022-08-09T13:53:41.254Z,24.59
2022-08-09T14:08:46.009Z,24.27
2022-08-09T14:23:54.919Z,24.45
2022-08-09T14:38:59.272Z,23.93
2022-08-09T14:54:01.451Z,24.10
2022-08-09T15:09:05.409Z,23.58
2022-08-09T15:24:13.023Z,23.14
2022-08-09T15:39:20.872Z,23.46
2022-08-09T15:54:32.205Z,23.15
2022-08-09T16:09:57.738Z,23.83
2022-08-09T16:25:05.530Z,23.85
2022-08-09T16:40:10.059Z,23.58
2022-08-09T16:55:15.679Z,22.90
2022-08-09T17:10:20.868Z,22.33
2022-08-09T17:25:23.931Z,21.42
2022-08-09T17:40:26.567Z,20.58
2022-08-09T17:55:47.077Z,19.96
2022-08-09T18:11:00.955Z,19.61
2022-08-09T18:26:03.907Z,19.55
2022-08-09T18:41:08.168Z,19.24
2022-08-09T18:56:10.996Z,18.86
2022-08-09T19:11:13.089Z,18.51
2022-08-09T19:26:15.534Z,18.27
2022-08-09T19:41:33.349Z,17.80
2022-08-09T19:56:42.504Z,17.36
2022-08-09T20:11:51.882Z,16.92
2022-08-09T20:27:00.830Z,16.57
2022-08-09T20:42:21.371Z,16.24
2022-08-09T20:57:32.290Z,16.15
2022-08-09T21:28:00.504Z,16.11
2022-08-09T21:43:06.121Z,15.78
2022-08-09T21:58:13.261Z,15.48
2022-08-09T22:13:18.957Z,15.19
2022-08-09T22:28:33.052Z,14.79
2022-08-09T22:44:01.200Z,14.63
2022-08-09T22:58:58.018Z,14.40
2022-08-09T23:14:00.808Z,14.15
2022-08-09T23:29:05.313Z,13.90
2022-08-09T23:44:07.685Z,13.68
2022-08-09T23:59:09.770Z,13.46
